Hurlburt Field
KHRT : rendu visible

Aérodrome :











RETROUVEZ-NOUS SUR...

 
LOGIN :

S'inscrire | Disclaimer

   EN    FR    IT 

 









Légende :    VFR   VFR Marginal   IFR   IFR Intensif   IFR Très Intensif
Visi : 
Plafond : 
>= 8 km
>= 3000ft
5 à 8 km
1000 à 3000 ft
1500m à 5 km
500 à 1000 ft
800 à 1500m
200 à 500 ft
< 800m
< 200 ft
Symboles :   Orages  Brouillard  Fortes neiges  Fortes précipitations  Vent > 20 kt






- Altitude de l'aérodrome : 38 ft


KHRT - Hurlburt Field

DERNIER METAR :
  • 250156Z 14012KT 10SM CLR 20/15 A3015 RMK AO2A SLP212 T02000148 $

METARs EXPIRÉS :
  • 250056Z 14010KT 10SM CLR 20/15 A3016 RMK AO2A SLP215 T01990153 $

TAF TAF KHRT
Valide du 25 à 02h jusqu'au 26 à 08h UTC


250200Z 2502/2608 14009KT 9999 SKC QNH3015INS
BECMG 2510/2511 18009KT 9999 SCT030 QNH3014INS
BECMG 2518/2519 18012KT 8000 -RA BKN030 OVC070 QNH3011INS TX23/2519Z TN03/2511Z
FIR KZJX / Amérique du Nord



MET'MAP, la Météo Aéronautique d'un coup d'oeil ! - Copyright ORBIFLY Décembre 2007 - Disclaimer

ORBIFLY MET'MAP TEAM :

Programmation & Développement : Alexandra Zaïnal
Sur une idée originale de : Baudouin d'Aumeries
Assistance à la programmation : Marc-Olivier Méhu
Soutien technique & logistique : Manuel Goepfert

Contact : metmap@orbifly.com




SOURCES & CREDITS :

   NOAA       Earth
Advisory